Time;durP1;ratioP1;P1;durP2;ratioP2;P2;SDS_P1;SDS_P2;PMS_P1;PMS_P2;Temp;Humidity;BMP_temperature;BMP_pressure;BME280_temperature;BME280_humidity;BME280_pressure;Samples;Min_cycle;Max_cycle;Signal;HPM_P1;HPM_P2
2023/08/04 00:01:53;;;;;;;4.50;2.20;;;22.00;58.80;;;;;;5136196;27;20208;-57
2023/08/04 00:04:21;;;;;;;4.40;1.67;;;22.00;58.70;;;;;;5136374;27;20188;-56
2023/08/04 00:06:49;;;;;;;3.78;1.80;;;21.90;58.60;;;;;;5136383;27;20225;-57
2023/08/04 00:09:17;;;;;;;3.05;1.55;;;22.00;58.70;;;;;;5136365;27;20188;-53
2023/08/04 00:12:00;;;;;;;7.18;1.98;;;22.00;58.70;;;;;;5136254;27;20303;-57
2023/08/04 00:14:27;;;;;;;3.28;1.88;;;22.00;58.70;;;;;;5136106;27;20315;-58
2023/08/04 00:16:54;;;;;;;4.75;2.03;;;21.90;58.50;;;;;;5136190;27;20216;-54
2023/08/04 00:19:22;;;;;;;4.07;1.90;;;21.90;58.50;;;;;;5135806;27;20189;-56
2023/08/04 00:21:50;;;;;;;2.78;1.70;;;21.90;58.50;;;;;;5136208;27;20212;-57
2023/08/04 00:24:18;;;;;;;4.65;2.03;;;21.90;58.50;;;;;;5135717;27;20191;-55
2023/08/04 00:26:45;;;;;;;4.53;1.77;;;21.90;58.50;;;;;;5135894;27;20217;-53
2023/08/04 00:29:14;;;;;;;3.08;1.80;;;21.90;58.40;;;;;;5136007;27;20189;-55
2023/08/04 00:31:41;;;;;;;2.33;1.83;;;21.90;58.50;;;;;;5135914;27;20213;-56
2023/08/04 00:34:08;;;;;;;3.63;1.60;;;21.90;58.40;;;;;;5135441;27;20240;-56
2023/08/04 00:36:37;;;;;;;4.97;2.17;;;21.90;58.40;;;;;;5134899;27;20223;-54
2023/08/04 00:39:06;;;;;;;3.05;1.73;;;21.90;58.40;;;;;;5136066;27;20283;-56
2023/08/04 00:41:33;;;;;;;4.75;1.60;;;21.90;58.40;;;;;;5135944;27;20216;-55
2023/08/04 00:44:01;;;;;;;3.10;1.73;;;21.90;58.30;;;;;;5135708;27;20192;-55
2023/08/04 00:46:29;;;;;;;3.13;1.70;;;21.90;58.30;;;;;;5135233;27;20216;-56
2023/08/04 00:48:57;;;;;;;5.45;1.88;;;21.90;58.30;;;;;;5135260;27;20714;-55
2023/08/04 00:51:25;;;;;;;3.80;1.63;;;21.90;58.30;;;;;;5135520;27;20216;-56
2023/08/04 00:53:52;;;;;;;3.85;1.80;;;21.90;58.20;;;;;;5135443;27;20216;-56
2023/08/04 00:56:21;;;;;;;2.88;1.80;;;21.90;58.20;;;;;;5135378;27;20212;-58
2023/08/04 00:58:49;;;;;;;5.88;2.00;;;21.80;58.20;;;;;;5129420;27;20193;-56
2023/08/04 01:01:16;;;;;;;5.00;1.70;;;21.90;58.20;;;;;;5114671;27;20225;-56
2023/08/04 01:03:43;;;;;;;2.53;1.70;;;21.90;58.20;;;;;;5114682;28;20188;-54
2023/08/04 01:06:17;;;;;;;3.78;1.70;;;21.90;58.20;;;;;;5114252;28;20217;-58
2023/08/04 01:08:52;;;;;;;3.20;1.63;;;21.90;58.20;;;;;;5114668;28;20189;-57
2023/08/04 01:11:24;;;;;;;3.83;1.98;;;21.80;58.00;;;;;;5114267;28;20698;-57
2023/08/04 01:13:52;;;;;;;5.38;1.98;;;21.90;58.20;;;;;;5114442;28;20221;-53
2023/08/04 01:16:19;;;;;;;3.60;1.50;;;21.90;58.10;;;;;;5114431;28;20217;-56
2023/08/04 01:18:47;;;;;;;4.28;1.80;;;21.80;58.00;;;;;;5114418;28;20193;-57
2023/08/04 01:21:16;;;;;;;2.88;1.80;;;21.90;58.10;;;;;;5114072;28;20308;-56
2023/08/04 01:23:43;;;;;;;4.70;1.73;;;21.80;58.00;;;;;;5114282;28;20178;-56
2023/08/04 01:26:10;;;;;;;3.15;1.80;;;21.90;58.00;;;;;;5114242;28;20281;-58
2023/08/04 01:28:39;;;;;;;3.92;2.00;;;21.90;58.10;;;;;;5114210;28;20189;-57
2023/08/04 01:31:07;;;;;;;3.42;1.95;;;21.80;58.00;;;;;;5114144;28;20186;-57
2023/08/04 01:33:35;;;;;;;4.03;1.80;;;21.80;58.00;;;;;;5113862;28;20270;-57
2023/08/04 01:36:02;;;;;;;4.45;1.65;;;21.80;57.90;;;;;;5113604;28;20204;-53
2023/08/04 01:38:30;;;;;;;2.78;1.80;;;21.80;57.90;;;;;;5114277;28;20207;-54
2023/08/04 01:40:58;;;;;;;3.38;1.65;;;21.80;57.90;;;;;;5113636;28;20371;-54
2023/08/04 01:43:25;;;;;;;3.85;1.63;;;21.80;57.90;;;;;;5113924;28;20197;-55
2023/08/04 01:45:52;;;;;;;3.97;1.90;;;21.80;57.90;;;;;;5113790;28;20185;-55
2023/08/04 01:48:20;;;;;;;3.63;1.58;;;21.80;57.90;;;;;;5113670;28;20181;-56
2023/08/04 01:50:47;;;;;;;4.93;2.00;;;21.80;57.90;;;;;;5113792;28;20194;-55
2023/08/04 01:53:14;;;;;;;3.25;1.70;;;21.80;57.90;;;;;;5113856;28;20236;-54
2023/08/04 01:55:43;;;;;;;3.72;1.95;;;21.80;57.90;;;;;;5113350;28;20272;-57
2023/08/04 01:58:10;;;;;;;2.03;1.73;;;21.80;57.90;;;;;;5113847;28;20220;-53
2023/08/04 02:00:38;;;;;;;3.45;1.70;;;21.80;57.90;;;;;;5113717;28;20185;-54
2023/08/04 02:03:05;;;;;;;2.90;1.80;;;21.80;57.90;;;;;;5113783;28;20221;-54
2023/08/04 02:05:32;;;;;;;3.83;1.70;;;21.80;57.90;;;;;;5113512;28;20189;-57
2023/08/04 02:08:00;;;;;;;3.03;1.50;;;21.80;57.90;;;;;;5113421;28;20217;-55
2023/08/04 02:10:27;;;;;;;3.38;2.00;;;21.80;57.90;;;;;;5113397;28;20239;-56
2023/08/04 02:12:56;;;;;;;2.78;1.92;;;21.80;57.90;;;;;;5113491;28;20243;-55
2023/08/04 02:15:23;;;;;;;3.60;1.88;;;21.80;57.90;;;;;;5113310;28;20254;-54
2023/08/04 02:17:51;;;;;;;4.38;1.85;;;21.80;57.90;;;;;;5113477;28;20285;-53
2023/08/04 02:20:18;;;;;;;1.60;1.20;;;21.80;57.90;;;;;;5113227;28;20197;-56
2023/08/04 02:22:45;;;;;;;3.33;1.88;;;21.80;57.90;;;;;;5113403;28;20209;-52
2023/08/04 02:25:12;;;;;;;2.15;1.60;;;21.80;57.90;;;;;;5112876;28;20193;-57
2023/08/04 02:27:39;;;;;;;5.90;2.03;;;21.80;57.90;;;;;;5113269;28;20224;-57
2023/08/04 02:30:09;;;;;;;3.92;1.80;;;21.80;57.90;;;;;;5112776;28;20251;-54
2023/08/04 02:32:36;;;;;;;3.60;1.70;;;21.80;57.90;;;;;;5112929;28;20219;-57
2023/08/04 02:35:04;;;;;;;2.70;1.92;;;21.80;57.90;;;;;;5112852;28;20236;-57
2023/08/04 02:37:31;;;;;;;3.92;2.00;;;21.70;57.80;;;;;;5113191;28;20271;-52
2023/08/04 02:39:58;;;;;;;2.30;1.50;;;21.80;57.90;;;;;;5113026;28;20185;-57
2023/08/04 02:42:26;;;;;;;3.30;1.73;;;21.80;57.90;;;;;;5113032;28;20209;-53
2023/08/04 02:44:55;;;;;;;2.75;1.80;;;21.70;57.70;;;;;;5112948;28;20624;-57
2023/08/04 02:47:24;;;;;;;2.47;1.70;;;21.80;57.90;;;;;;5112950;28;20213;-56
2023/08/04 02:49:51;;;;;;;4.93;1.70;;;21.80;57.80;;;;;;5112862;28;20197;-54
2023/08/04 02:52:19;;;;;;;3.97;1.75;;;21.80;57.80;;;;;;5112566;28;20299;-56
2023/08/04 02:54:46;;;;;;;3.20;1.83;;;21.80;57.80;;;;;;5112731;28;20212;-52
2023/08/04 02:57:13;;;;;;;3.30;1.80;;;21.80;57.80;;;;;;5113081;28;20227;-52
2023/08/04 02:59:41;;;;;;;2.55;1.67;;;21.80;57.80;;;;;;5112323;28;20193;-57
2023/08/04 03:02:08;;;;;;;2.28;1.55;;;21.70;57.80;;;;;;5112546;28;20212;-55
2023/08/04 03:04:39;;;;;;;3.83;1.88;;;21.70;57.70;;;;;;5111552;28;20188;-54
2023/08/04 03:07:07;;;;;;;3.95;1.63;;;21.70;57.80;;;;;;5112734;28;20214;-54
2023/08/04 03:09:34;;;;;;;1.95;1.38;;;21.80;57.80;;;;;;5112665;28;20239;-55
2023/08/04 03:12:02;;;;;;;2.70;1.70;;;21.70;57.80;;;;;;5112773;28;20212;-56
2023/08/04 03:14:30;;;;;;;4.18;1.75;;;21.80;57.80;;;;;;5112542;28;20228;-54
2023/08/04 03:16:57;;;;;;;2.42;1.63;;;21.70;57.70;;;;;;5112299;28;20295;-57
2023/08/04 03:19:24;;;;;;;2.90;1.80;;;21.80;57.80;;;;;;5112592;28;20189;-57
2023/08/04 03:21:53;;;;;;;3.55;1.70;;;21.70;57.70;;;;;;5112642;28;20307;-57
2023/08/04 03:24:20;;;;;;;4.10;2.10;;;21.70;57.70;;;;;;5112525;28;20191;-55
2023/08/04 03:26:48;;;;;;;4.50;1.90;;;21.70;57.70;;;;;;5112502;28;20217;-56
2023/08/04 03:29:15;;;;;;;4.15;1.80;;;21.70;57.70;;;;;;5112486;28;20193;-55
2023/08/04 03:31:42;;;;;;;3.47;1.75;;;21.70;57.70;;;;;;5112536;28;20262;-56
2023/08/04 03:34:09;;;;;;;3.33;2.00;;;21.70;57.70;;;;;;5111837;28;20240;-56
2023/08/04 03:36:37;;;;;;;7.38;2.10;;;21.70;57.80;;;;;;5112525;28;20217;-57
2023/08/04 03:39:05;;;;;;;3.78;1.90;;;21.70;57.70;;;;;;5112400;28;20193;-56
2023/08/04 03:41:33;;;;;;;2.47;1.83;;;21.70;57.80;;;;;;5112386;28;20224;-58
2023/08/04 03:44:00;;;;;;;4.95;2.20;;;21.70;57.80;;;;;;5112316;28;20185;-58
2023/08/04 03:46:28;;;;;;;2.67;1.45;;;21.70;57.70;;;;;;5112261;28;20322;-59
2023/08/04 03:48:55;;;;;;;3.08;1.65;;;21.70;57.80;;;;;;5112331;28;20190;-60
2023/08/04 03:51:23;;;;;;;2.33;1.70;;;21.70;57.80;;;;;;5112244;28;20248;-57
2023/08/04 03:53:50;;;;;;;1.75;1.42;;;21.70;57.80;;;;;;5112266;28;20213;-57
2023/08/04 03:56:19;;;;;;;3.40;1.75;;;21.70;57.80;;;;;;5112150;28;20193;-57
2023/08/04 03:58:46;;;;;;;2.50;1.67;;;21.80;57.90;;;;;;5119197;28;20200;-57
2023/08/04 04:01:12;;;;;;;3.42;1.70;;;21.70;57.80;;;;;;5118996;28;20197;-56
2023/08/04 04:03:40;;;;;;;7.10;2.00;;;21.70;57.80;;;;;;5112045;28;20196;-53
2023/08/04 04:06:07;;;;;;;3.05;1.73;;;21.70;57.80;;;;;;5112002;28;20182;-56
2023/08/04 04:08:34;;;;;;;2.80;1.80;;;21.70;57.70;;;;;;5112048;28;20189;-57
2023/08/04 04:11:02;;;;;;;3.28;1.90;;;21.70;57.70;;;;;;5113553;28;20203;-56
2023/08/04 04:13:31;;;;;;;4.22;1.98;;;21.70;57.80;;;;;;5115452;28;20655;-56
2023/08/04 04:15:58;;;;;;;3.42;1.98;;;21.70;57.70;;;;;;5115631;28;20288;-58
2023/08/04 04:18:26;;;;;;;3.17;1.98;;;21.70;57.80;;;;;;5115567;28;20223;-55
2023/08/04 04:20:53;;;;;;;3.42;1.70;;;21.70;57.80;;;;;;5115296;28;20182;-58
2023/08/04 04:23:20;;;;;;;2.55;1.75;;;21.70;57.70;;;;;;5115747;28;20217;-58
2023/08/04 04:25:50;;;;;;;3.45;2.10;;;21.70;57.80;;;;;;5115157;28;20204;-57
2023/08/04 04:28:17;;;;;;;1.95;1.60;;;21.70;57.80;;;;;;5115318;28;20213;-58
2023/08/04 04:30:48;;;;;;;2.65;1.67;;;21.70;57.70;;;;;;5115367;28;20272;-56
2023/08/04 04:33:16;;;;;;;3.97;1.95;;;21.70;57.80;;;;;;5115235;28;20224;-59
2023/08/04 04:35:49;;;;;;;3.28;1.70;;;21.70;57.70;;;;;;5114871;28;20236;-58
2023/08/04 04:38:16;;;;;;;2.88;1.80;;;21.70;57.70;;;;;;5115457;28;20217;-56
2023/08/04 04:40:44;;;;;;;4.05;2.10;;;21.70;57.70;;;;;;5115194;28;20201;-57
2023/08/04 04:43:11;;;;;;;3.42;1.88;;;21.70;57.80;;;;;;5115309;28;20209;-57
2023/08/04 04:45:40;;;;;;;4.78;2.08;;;21.70;58.00;;;;;;5115016;28;20192;-56
2023/08/04 04:48:09;;;;;;;5.30;1.90;;;21.70;57.70;;;;;;5115223;28;20217;-56
2023/08/04 04:50:36;;;;;;;3.88;1.70;;;21.70;57.80;;;;;;5115012;28;20185;-56
2023/08/04 04:53:03;;;;;;;3.40;1.98;;;21.70;57.70;;;;;;5115147;28;20213;-58
2023/08/04 04:55:31;;;;;;;3.28;1.70;;;21.70;57.70;;;;;;5114468;28;20225;-57
2023/08/04 04:57:58;;;;;;;3.95;1.55;;;21.60;57.60;;;;;;5115036;28;20220;-57
2023/08/04 05:00:25;;;;;;;4.32;1.95;;;21.70;57.70;;;;;;5114677;27;20189;-55
2023/08/04 05:02:53;;;;;;;3.45;2.00;;;21.70;57.70;;;;;;5114848;28;20221;-58
2023/08/04 05:05:22;;;;;;;3.67;2.17;;;21.70;57.70;;;;;;5114700;28;20239;-57
2023/08/04 05:07:49;;;;;;;3.50;1.90;;;21.60;57.70;;;;;;5114484;28;20216;-57
2023/08/04 05:10:17;;;;;;;3.47;1.88;;;21.60;57.60;;;;;;5114570;28;20250;-55
2023/08/04 05:12:44;;;;;;;2.08;1.77;;;21.60;57.60;;;;;;5114774;28;20304;-57
2023/08/04 05:15:12;;;;;;;2.17;1.75;;;21.70;57.70;;;;;;5114371;28;20289;-58
2023/08/04 05:17:39;;;;;;;4.32;1.92;;;21.70;57.70;;;;;;5114856;28;20213;-58
2023/08/04 05:20:08;;;;;;;5.03;1.90;;;21.70;57.70;;;;;;5114362;28;20189;-56
2023/08/04 05:22:37;;;;;;;3.15;1.77;;;21.60;57.70;;;;;;5114038;28;20216;-54
2023/08/04 05:25:05;;;;;;;4.47;2.13;;;21.60;57.60;;;;;;5114300;28;20228;-55
2023/08/04 05:27:32;;;;;;;2.45;1.50;;;21.70;57.70;;;;;;5114402;28;20270;-59
2023/08/04 05:30:02;;;;;;;5.03;2.00;;;21.60;57.60;;;;;;5114283;28;20268;-59
2023/08/04 05:32:29;;;;;;;4.03;2.03;;;21.60;57.60;;;;;;5114224;28;20208;-57
2023/08/04 05:34:56;;;;;;;2.88;1.60;;;21.60;57.60;;;;;;5113807;28;20236;-54
2023/08/04 05:37:23;;;;;;;4.03;2.05;;;21.70;57.70;;;;;;5113989;28;20224;-57
2023/08/04 05:39:52;;;;;;;3.15;1.67;;;21.60;57.70;;;;;;5114409;28;20242;-56
2023/08/04 05:42:19;;;;;;;2.80;1.77;;;21.60;57.70;;;;;;5114006;28;20224;-56
2023/08/04 05:44:47;;;;;;;3.95;1.92;;;21.60;57.60;;;;;;5113612;28;20694;-55
2023/08/04 05:47:14;;;;;;;3.88;1.90;;;21.60;57.60;;;;;;5113894;28;20217;-58
2023/08/04 05:49:41;;;;;;;2.20;1.60;;;21.60;57.60;;;;;;5113810;28;20193;-56
2023/08/04 05:52:09;;;;;;;4.28;2.00;;;21.60;57.70;;;;;;5113523;28;20634;-54
2023/08/04 05:54:36;;;;;;;2.67;1.80;;;21.60;57.60;;;;;;5113351;28;20304;-57
2023/08/04 05:57:05;;;;;;;3.42;1.70;;;21.60;57.60;;;;;;5113658;28;20212;-57
2023/08/04 05:59:32;;;;;;;4.88;1.98;;;21.60;57.60;;;;;;5113698;28;20190;-57
2023/08/04 06:02:00;;;;;;;3.72;1.83;;;21.60;57.60;;;;;;5113655;28;20216;-56
2023/08/04 06:04:27;;;;;;;3.13;1.77;;;21.60;57.60;;;;;;5113589;28;20201;-58
2023/08/04 06:06:54;;;;;;;3.45;1.55;;;21.60;57.60;;;;;;5113173;28;20221;-53
2023/08/04 06:09:21;;;;;;;2.35;2.00;;;21.60;57.60;;;;;;5113482;28;20238;-57
2023/08/04 06:11:49;;;;;;;4.38;2.08;;;21.60;57.60;;;;;;5113409;28;20209;-55
2023/08/04 06:14:18;;;;;;;2.88;2.05;;;21.60;57.60;;;;;;5113353;28;20189;-57
2023/08/04 06:16:45;;;;;;;5.95;1.90;;;21.60;57.60;;;;;;5113020;28;20296;-58
2023/08/04 06:19:12;;;;;;;3.70;1.80;;;21.60;57.60;;;;;;5113241;28;20186;-54
2023/08/04 06:21:40;;;;;;;1.75;1.42;;;21.60;58.20;;;;;;5113292;28;20225;-58
2023/08/04 06:24:10;;;;;;;5.38;1.88;;;21.50;57.50;;;;;;5113269;28;20190;-58
2023/08/04 06:26:38;;;;;;;4.18;1.80;;;21.60;57.60;;;;;;5112765;28;20213;-57
2023/08/04 06:29:05;;;;;;;2.67;1.80;;;21.60;57.60;;;;;;5113180;28;20189;-53
2023/08/04 06:31:34;;;;;;;1.65;1.48;;;21.60;57.60;;;;;;5113029;28;20189;-58
2023/08/04 06:34:01;;;;;;;2.55;1.58;;;21.60;57.60;;;;;;5112152;28;20225;-57
2023/08/04 06:36:29;;;;;;;5.55;2.08;;;21.60;57.60;;;;;;5112738;28;20693;-58
2023/08/04 06:38:56;;;;;;;4.03;2.00;;;21.60;57.60;;;;;;5113273;28;20215;-57
2023/08/04 06:41:24;;;;;;;2.95;1.90;;;21.60;57.60;;;;;;5112836;28;20197;-57
2023/08/04 06:43:52;;;;;;;2.30;1.90;;;21.60;57.60;;;;;;5112966;28;20185;-57
2023/08/04 06:46:19;;;;;;;1.92;1.80;;;21.60;57.60;;;;;;5112890;28;20197;-54
2023/08/04 06:48:47;;;;;;;4.82;1.88;;;21.60;57.60;;;;;;5112933;28;20238;-54
2023/08/04 06:51:14;;;;;;;3.95;1.83;;;21.50;57.50;;;;;;5112929;28;20181;-57
2023/08/04 06:53:43;;;;;;;2.47;1.80;;;21.60;57.60;;;;;;5112716;28;20274;-58
2023/08/04 06:56:10;;;;;;;2.25;1.80;;;21.60;57.60;;;;;;5112689;28;20225;-57
2023/08/04 06:58:37;;;;;;;2.33;1.70;;;21.60;57.60;;;;;;5113073;28;20223;-60
2023/08/04 07:01:15;;;;;;;2.78;1.95;;;21.60;58.30;;;;;;5111625;28;20189;-58
2023/08/04 07:03:45;;;;;;;4.07;2.00;;;21.60;57.60;;;;;;5060092;28;20256;-57
2023/08/04 07:06:17;;;;;;;2.97;2.00;;;21.60;57.60;;;;;;5112916;28;20196;-56
2023/08/04 07:08:44;;;;;;;3.38;1.98;;;21.60;58.30;;;;;;5119820;28;20689;-61
2023/08/04 07:11:15;;;;;;;4.75;1.90;;;21.60;57.70;;;;;;5125831;28;20189;-61
2023/08/04 07:13:42;;;;;;;2.78;2.03;;;21.70;57.70;;;;;;5126808;28;20224;-59
2023/08/04 07:16:10;;;;;;;3.53;2.20;;;21.60;57.60;;;;;;5128673;28;20216;-58
2023/08/04 07:18:37;;;;;;;3.92;2.30;;;21.70;57.70;;;;;;5128785;28;20601;-60
2023/08/04 07:21:09;;;;;;;3.78;2.03;;;21.70;57.70;;;;;;5131305;28;20195;-60
2023/08/04 07:23:41;;;;;;;8.65;1.85;;;21.80;57.70;;;;;;5122617;28;20218;-57
2023/08/04 07:26:10;;;;;;;2.65;1.73;;;21.80;57.70;;;;;;5131806;28;20196;-60
2023/08/04 07:28:38;;;;;;;2.65;1.73;;;21.80;57.60;;;;;;5129200;28;20286;-56
2023/08/04 07:31:06;;;;;;;3.70;1.80;;;21.90;57.70;;;;;;5121259;27;20197;-55
2023/08/04 07:33:33;;;;;;;3.40;1.92;;;21.80;57.60;;;;;;5118340;28;20213;-59
2023/08/04 07:36:01;;;;;;;5.18;2.08;;;21.90;57.70;;;;;;5128558;28;20219;-57
2023/08/04 07:38:29;;;;;;;2.60;1.83;;;21.90;57.60;;;;;;5113999;28;20270;-55
2023/08/04 07:40:59;;;;;;;3.78;1.90;;;22.00;57.70;;;;;;5131437;28;20193;-56
2023/08/04 07:43:26;;;;;;;2.92;1.88;;;22.00;57.60;;;;;;5126438;28;20248;-59
2023/08/04 07:45:55;;;;;;;4.20;2.03;;;22.00;57.60;;;;;;5133418;27;20189;-58
2023/08/04 07:48:23;;;;;;;5.72;2.10;;;22.00;57.40;;;;;;5128619;27;20209;-59
2023/08/04 07:50:52;;;;;;;4.57;2.13;;;22.10;57.40;;;;;;5134783;27;20181;-59
2023/08/04 07:53:19;;;;;;;5.68;2.10;;;22.10;57.40;;;;;;5134575;27;20236;-59
2023/08/04 07:59:31;;;;;;;3.72;1.83;;;22.20;57.50;;;;;;5027808;28;20219;-60
2023/08/04 08:02:00;;;;;;;4.50;2.45;;;22.20;57.40;;;;;;5023794;28;20288;-57
2023/08/04 08:04:27;;;;;;;3.47;1.90;;;22.20;57.40;;;;;;5012299;28;20208;-59
2023/08/04 08:06:55;;;;;;;3.25;2.00;;;22.20;57.40;;;;;;5015337;28;20205;-59
2023/08/04 08:09:22;;;;;;;4.55;2.15;;;22.20;57.40;;;;;;5026006;28;20275;-57
2023/08/04 08:11:49;;;;;;;3.00;2.15;;;22.20;57.40;;;;;;5007578;28;20203;-58
2023/08/04 08:14:17;;;;;;;5.25;2.17;;;22.20;57.40;;;;;;5009861;28;20201;-56
2023/08/04 08:16:45;;;;;;;2.30;2.00;;;22.20;57.40;;;;;;5013952;28;20307;-59
2023/08/04 08:19:13;;;;;;;5.60;1.75;;;22.20;57.40;;;;;;5009349;28;20212;-58
2023/08/04 08:21:42;;;;;;;5.15;1.70;;;22.20;57.40;;;;;;5015992;28;20201;-55
2023/08/04 08:24:09;;;;;;;5.22;2.00;;;22.20;57.40;;;;;;5019720;28;20286;-55
2023/08/04 08:26:37;;;;;;;2.45;2.03;;;22.20;57.40;;;;;;5008993;28;20263;-54
2023/08/04 08:29:07;;;;;;;4.18;2.05;;;22.20;57.40;;;;;;5007040;28;20216;-57
2023/08/04 08:31:34;;;;;;;2.60;1.58;;;22.20;57.40;;;;;;5015485;28;20240;-56
2023/08/04 08:34:02;;;;;;;4.45;2.20;;;22.20;57.40;;;;;;5014828;28;20224;-53
2023/08/04 08:36:30;;;;;;;2.53;1.60;;;22.20;57.40;;;;;;5066193;28;20226;-55
2023/08/04 08:38:57;;;;;;;4.18;2.35;;;22.20;57.40;;;;;;5098958;28;20633;-57
2023/08/04 08:41:33;;;;;;;3.83;1.92;;;22.20;57.40;;;;;;5074045;28;20211;-55
2023/08/04 08:44:02;;;;;;;3.75;1.83;;;22.20;57.50;;;;;;5098873;27;20228;-57
2023/08/04 08:46:33;;;;;;;3.42;2.10;;;22.20;57.40;;;;;;5089371;28;20197;-56
2023/08/04 08:49:03;;;;;;;3.42;1.88;;;22.20;57.40;;;;;;5088096;27;20216;-57
2023/08/04 08:51:34;;;;;;;4.00;1.77;;;22.30;57.50;;;;;;5081907;27;20200;-53
2023/08/04 08:54:05;;;;;;;4.25;1.70;;;22.20;57.40;;;;;;5097048;27;20241;-56
2023/08/04 08:56:35;;;;;;;6.55;2.10;;;22.20;57.40;;;;;;5097757;27;20672;-54
2023/08/04 08:59:04;;;;;;;2.50;2.00;;;22.20;57.30;;;;;;5119571;27;20305;-57
2023/08/04 09:01:34;;;;;;;3.45;2.00;;;22.20;57.30;;;;;;5097684;27;20655;-54
2023/08/04 09:04:02;;;;;;;3.03;1.80;;;22.20;57.40;;;;;;5068786;27;20229;-57
2023/08/04 09:06:49;;;;;;;3.97;2.00;;;22.20;57.40;;;;;;5101028;27;20192;-54
2023/08/04 09:09:21;;;;;;;6.20;2.33;;;22.30;57.50;;;;;;5083062;28;20217;-57
2023/08/04 09:11:49;;;;;;;3.55;2.08;;;22.30;57.50;;;;;;5107935;27;20188;-58
2023/08/04 09:14:19;;;;;;;5.78;2.13;;;22.30;57.40;;;;;;5100744;27;20214;-58
2023/08/04 09:16:49;;;;;;;5.10;2.15;;;22.40;57.50;;;;;;5111962;27;20291;-58
2023/08/04 09:19:16;;;;;;;10.43;1.92;;;22.50;57.40;;;;;;5094059;27;20802;-56
2023/08/04 09:21:43;;;;;;;4.40;2.05;;;22.50;57.30;;;;;;5093023;27;20313;-56
2023/08/04 09:24:13;;;;;;;4.32;2.25;;;22.60;57.40;;;;;;5098498;27;20276;-57
2023/08/04 09:26:47;;;;;;;3.70;2.00;;;22.60;57.30;;;;;;5104684;27;20296;-55
2023/08/04 09:29:20;;;;;;;4.88;2.00;;;22.60;57.20;;;;;;5090647;28;20206;-56
2023/08/04 09:31:54;;;;;;;4.63;2.22;;;22.60;57.10;;;;;;5094688;27;20289;-60
2023/08/04 09:34:23;;;;;;;4.40;2.13;;;22.60;57.10;;;;;;5097408;27;20230;-62
2023/08/04 09:36:53;;;;;;;10.88;2.45;;;22.60;56.70;;;;;;5075243;27;20319;-54
2023/08/04 09:39:20;;;;;;;5.35;2.75;;;22.50;57.50;;;;;;5100932;27;20295;-58
2023/08/04 09:41:49;;;;;;;4.18;2.17;;;22.40;57.50;;;;;;5131858;27;20211;-59
2023/08/04 09:44:18;;;;;;;3.35;1.98;;;22.30;57.50;;;;;;5122254;27;20184;-62
2023/08/04 09:46:49;;;;;;;4.03;2.30;;;22.20;57.60;;;;;;5122559;27;20775;-63
2023/08/04 09:49:20;;;;;;;7.00;2.53;;;22.00;57.90;;;;;;5124324;27;20276;-59
2023/08/04 09:51:57;;;;;;;9.40;2.38;;;21.90;58.10;;;;;;5112500;27;20248;-58
2023/08/04 09:54:27;;;;;;;5.30;2.47;;;21.70;58.20;;;;;;5143884;27;20200;-56
2023/08/04 09:56:57;;;;;;;6.53;2.72;;;21.60;58.40;;;;;;5131625;27;20223;-57
2023/08/04 09:59:27;;;;;;;7.32;2.47;;;21.30;58.70;;;;;;5115059;27;20196;-67
2023/08/04 10:02:01;;;;;;;6.88;3.13;;;21.30;59.00;;;;;;5123330;27;20303;-69
2023/08/04 10:04:34;;;;;;;8.95;2.28;;;21.20;59.30;;;;;;5137215;27;20723;-68
2023/08/04 10:07:03;;;;;;;4.70;2.25;;;21.10;59.20;;;;;;5143025;27;20215;-68
2023/08/04 10:09:33;;;;;;;6.90;2.33;;;20.90;59.70;;;;;;5135425;27;20196;-67
2023/08/04 10:12:03;;;;;;;7.35;2.42;;;20.80;59.90;;;;;;5150664;27;20592;-68
2023/08/04 10:14:33;;;;;;;5.68;2.40;;;20.80;59.90;;;;;;5149917;27;20184;-68
2023/08/04 10:17:02;;;;;;;4.63;2.28;;;20.90;59.70;;;;;;5129587;27;20226;-68
2023/08/04 10:19:59;;;;;;;;;;;;;;;;;;;;;
2023/08/04 10:22:45;;;;;;;8.10;2.10;;;20.80;59.50;;;;;;5078419;27;20208;-68
2023/08/04 10:25:36;;;;;;;5.50;2.00;;;20.70;59.70;;;;;;5125243;27;20677;-68
2023/08/04 10:28:05;;;;;;;3.28;1.80;;;20.60;60.10;;;;;;5124506;27;20219;-69
2023/08/04 10:30:32;;;;;;;3.03;1.60;;;20.70;60.10;;;;;;5112887;27;20231;-69
2023/08/04 10:33:10;;;;;;;6.72;1.77;;;20.70;59.70;;;;;;5120978;27;20304;-70
2023/08/04 10:36:05;;;;;;;6.93;1.73;;;20.70;59.50;;;;;;5127018;27;20243;-70
2023/08/04 10:38:44;;;;;;;5.60;1.92;;;20.60;59.50;;;;;;5122151;27;20246;-69
2023/08/04 10:41:12;;;;;;;4.50;1.70;;;20.60;59.50;;;;;;5121719;27;20311;-70
2023/08/04 10:49:59;;;;;;;8.02;1.95;;;20.50;59.60;;;;;;4976552;28;20232;-69
2023/08/04 10:52:27;;;;;;;4.75;1.80;;;20.60;59.70;;;;;;4984201;28;20357;-68
2023/08/04 10:54:55;;;;;;;3.50;1.50;;;20.60;59.40;;;;;;4982497;28;20732;-69
2023/08/04 11:00:08;;;;;;;4.80;1.80;;;20.70;59.30;;;;;;4946220;28;20203;-69
2023/08/04 11:02:41;;;;;;;5.93;1.92;;;20.70;59.30;;;;;;4946575;28;20661;-68
2023/08/04 11:08:49;;;;;;;4.53;1.67;;;20.70;59.50;;;;;;4875906;29;20240;-72
2023/08/04 11:15:01;;;;;;;3.65;1.40;;;20.70;59.00;;;;;;4966674;28;20199;-69
2023/08/04 11:20:15;;;;;;;5.18;1.60;;;20.60;59.20;;;;;;4966032;28;20251;-69
2023/08/04 11:22:56;;;;;;;4.20;1.73;;;20.70;58.80;;;;;;4973514;28;20209;-69
2023/08/04 11:25:23;;;;;;;4.95;1.50;;;20.60;58.90;;;;;;5008392;28;20201;-69
2023/08/04 11:27:51;;;;;;;4.55;1.70;;;20.60;59.00;;;;;;5024611;28;20616;-68
2023/08/04 11:30:18;;;;;;;6.50;1.60;;;20.60;58.30;;;;;;5027904;28;20208;-69
2023/08/04 11:35:47;;;;;;;4.18;1.50;;;20.50;58.80;;;;;;4971884;28;20255;-69
2023/08/04 11:38:15;;;;;;;4.45;1.75;;;20.50;59.00;;;;;;5084738;27;20196;-69
2023/08/04 11:41:19;;;;;;;;;;;;;;;;;;;;;
2023/08/04 11:44:04;;;;;;;;;;;;;;;;;;;;;
2023/08/04 11:47:05;;;;;;;7.40;2.03;;;20.40;58.10;;;;;;5013557;28;20702;-72
2023/08/04 11:50:09;;;;;;;4.97;1.85;;;20.30;58.30;;;;;;5109680;27;20295;-71
2023/08/04 11:59:21;;;;;;;8.80;1.60;;;20.30;58.20;;;;;;4974710;28;20261;-68
2023/08/04 12:05:06;;;;;;;3.95;1.50;;;20.30;57.20;;;;;;4854891;29;20208;-68
2023/08/04 12:07:37;;;;;;;3.58;1.60;;;20.40;57.50;;;;;;4938777;29;20974;-69
2023/08/04 12:10:07;;;;;;;5.85;1.38;;;20.30;57.10;;;;;;4920731;29;20228;-68
2023/08/04 12:12:38;;;;;;;5.95;2.03;;;20.20;57.20;;;;;;4924308;29;20275;-65
2023/08/04 12:15:07;;;;;;;6.03;1.95;;;20.10;57.30;;;;;;4925128;29;20202;-71
2023/08/04 12:17:43;;;;;;;5.28;1.60;;;20.10;57.60;;;;;;4925300;29;20235;-72
2023/08/04 12:26:19;;;;;;;3.92;1.70;;;20.30;57.20;;;;;;4991220;28;20213;-71
2023/08/04 12:34:32;;;;;;;2.72;1.73;;;20.20;56.80;;;;;;5040055;28;20379;-74
2023/08/04 12:37:02;;;;;;;6.32;1.83;;;20.20;56.90;;;;;;5011962;28;20240;-71
2023/08/04 12:39:30;;;;;;;4.40;1.95;;;20.20;57.20;;;;;;5059653;28;20209;-75
2023/08/04 12:42:21;;;;;;;7.30;2.10;;;20.30;57.40;;;;;;5059309;28;20310;-76
2023/08/04 12:44:48;;;;;;;8.25;2.97;;;20.40;57.20;;;;;;5054460;28;20195;-75
2023/08/04 12:47:16;;;;;;;3.65;1.85;;;20.40;56.60;;;;;;5025945;28;20213;-75
2023/08/04 12:49:44;;;;;;;5.07;1.67;;;20.40;56.20;;;;;;5056446;28;20352;-70
2023/08/04 12:52:14;;;;;;;4.95;1.98;;;20.40;56.70;;;;;;5058994;28;20222;-71
2023/08/04 12:54:42;;;;;;;7.20;2.20;;;20.40;56.60;;;;;;5059789;28;20195;-69
2023/08/04 12:57:13;;;;;;;2.47;1.63;;;20.40;56.50;;;;;;5059876;28;20234;-65
2023/08/04 12:59:42;;;;;;;3.63;1.65;;;20.40;56.00;;;;;;5058750;28;20194;-72
2023/08/04 13:02:10;;;;;;;6.00;1.77;;;20.30;56.30;;;;;;5058752;28;20215;-71
2023/08/04 13:04:52;;;;;;;9.23;2.42;;;20.40;56.60;;;;;;5042863;28;20187;-67
2023/08/04 13:07:42;;;;;;;2.88;1.90;;;20.40;56.30;;;;;;4993471;28;20214;-78
2023/08/04 13:10:10;;;;;;;6.68;2.20;;;20.30;57.00;;;;;;5026732;28;20217;-72
2023/08/04 13:12:42;;;;;;;4.80;2.20;;;20.20;57.50;;;;;;5056252;28;20219;-66
2023/08/04 13:15:13;;;;;;;4.20;2.17;;;20.10;57.60;;;;;;5050949;28;20314;-72
2023/08/04 13:17:41;;;;;;;6.07;2.08;;;20.00;57.80;;;;;;5059463;28;20321;-57
2023/08/04 13:20:11;;;;;;;3.75;1.80;;;20.00;57.80;;;;;;5055533;28;20203;-63
2023/08/04 13:22:42;;;;;;;4.20;2.03;;;20.00;57.60;;;;;;5039455;28;20238;-73
2023/08/04 13:25:10;;;;;;;5.30;2.00;;;19.90;58.10;;;;;;4974477;28;20209;-70
2023/08/04 13:27:43;;;;;;;4.28;2.00;;;19.90;58.10;;;;;;5058337;28;20363;-69
2023/08/04 13:33:17;;;;;;;6.90;2.00;;;20.00;57.70;;;;;;5012334;28;20222;-64
2023/08/04 13:35:45;;;;;;;5.15;1.83;;;20.10;57.50;;;;;;5049840;28;20349;-65
2023/08/04 13:38:14;;;;;;;6.43;1.75;;;20.10;57.50;;;;;;5054593;28;20248;-66
2023/08/04 13:40:42;;;;;;;5.30;1.75;;;20.30;57.70;;;;;;5055494;28;20201;-68
2023/08/04 13:43:11;;;;;;;4.40;2.00;;;20.40;57.00;;;;;;5041452;28;20226;-75
2023/08/04 13:45:45;;;;;;;7.57;1.88;;;20.40;56.60;;;;;;5027203;28;20209;-72
2023/08/04 13:48:27;;;;;;;4.65;2.30;;;20.30;56.70;;;;;;5056508;28;21064;-75
2023/08/04 13:54:06;;;;;;;7.68;2.65;;;20.10;56.90;;;;;;5033612;28;20341;-68
2023/08/04 14:03:30;;;;;;;;;;;;;;;;;;;;;
2023/08/04 14:09:18;;;;;;;;;;;;;;;;;;;;;